sensor_id;sensor_type;location;lat;lon;timestamp;temperature;humidity
8820;DHT22;4446;50.876;4.736;2024-01-15T00:01:11;2.00;99.90
8820;DHT22;4446;50.876;4.736;2024-01-15T00:03:38;1.90;99.90
8820;DHT22;4446;50.876;4.736;2024-01-15T00:06:05;1.90;99.90
8820;DHT22;4446;50.876;4.736;2024-01-15T00:08:32;1.90;99.90
8820;DHT22;4446;50.876;4.736;2024-01-15T00:10:59;1.90;99.90
8820;DHT22;4446;50.876;4.736;2024-01-15T00:13:27;1.90;99.90
8820;DHT22;4446;50.876;4.736;2024-01-15T00:15:54;1.90;99.90
8820;DHT22;4446;50.876;4.736;2024-01-15T00:18:23;2.00;99.90
8820;DHT22;4446;50.876;4.736;2024-01-15T00:20:50;2.00;99.90
8820;DHT22;4446;50.876;4.736;2024-01-15T00:23:17;2.10;99.90
8820;DHT22;4446;50.876;4.736;2024-01-15T00:25:43;2.10;99.90
8820;DHT22;4446;50.876;4.736;2024-01-15T00:28:10;2.10;99.90
8820;DHT22;4446;50.876;4.736;2024-01-15T00:30:37;2.10;99.90
8820;DHT22;4446;50.876;4.736;2024-01-15T00:33:04;2.10;99.90
8820;DHT22;4446;50.876;4.736;2024-01-15T00:35:33;2.20;99.90
8820;DHT22;4446;50.876;4.736;2024-01-15T00:38:00;2.20;99.90
8820;DHT22;4446;50.876;4.736;2024-01-15T00:40:27;2.20;99.90
8820;DHT22;4446;50.876;4.736;2024-01-15T00:42:54;2.20;99.90
8820;DHT22;4446;50.876;4.736;2024-01-15T00:45:21;2.20;99.90
8820;DHT22;4446;50.876;4.736;2024-01-15T00:47:48;2.20;99.90
8820;DHT22;4446;50.876;4.736;2024-01-15T00:50:15;2.30;99.90
8820;DHT22;4446;50.876;4.736;2024-01-15T00:52:44;2.30;99.90
8820;DHT22;4446;50.876;4.736;2024-01-15T00:55:11;2.20;99.90
8820;DHT22;4446;50.876;4.736;2024-01-15T00:57:39;2.20;99.90
8820;DHT22;4446;50.876;4.736;2024-01-15T01:00:07;2.20;99.90
8820;DHT22;4446;50.876;4.736;2024-01-15T01:02:34;2.30;99.90
8820;DHT22;4446;50.876;4.736;2024-01-15T01:05:01;2.20;99.90
8820;DHT22;4446;50.876;4.736;2024-01-15T01:07:29;2.20;99.90
8820;DHT22;4446;50.876;4.736;2024-01-15T01:09:57;2.30;99.90
8820;DHT22;4446;50.876;4.736;2024-01-15T01:12:24;2.30;99.90
8820;DHT22;4446;50.876;4.736;2024-01-15T01:14:51;2.30;99.90
8820;DHT22;4446;50.876;4.736;2024-01-15T01:17:18;2.20;99.90
8820;DHT22;4446;50.876;4.736;2024-01-15T01:19:45;2.30;99.90
8820;DHT22;4446;50.876;4.736;2024-01-15T01:22:12;2.30;99.90
8820;DHT22;4446;50.876;4.736;2024-01-15T01:24:39;2.30;99.90
8820;DHT22;4446;50.876;4.736;2024-01-15T01:27:07;2.20;99.90
8820;DHT22;4446;50.876;4.736;2024-01-15T01:29:35;2.20;99.90
8820;DHT22;4446;50.876;4.736;2024-01-15T01:32:02;2.20;99.90
8820;DHT22;4446;50.876;4.736;2024-01-15T01:34:29;2.20;99.90
8820;DHT22;4446;50.876;4.736;2024-01-15T01:36:57;2.20;99.90
8820;DHT22;4446;50.876;4.736;2024-01-15T01:39:25;2.00;99.90
8820;DHT22;4446;50.876;4.736;2024-01-15T01:41:52;1.90;99.90
8820;DHT22;4446;50.876;4.736;2024-01-15T01:44:21;1.90;99.90
8820;DHT22;4446;50.876;4.736;2024-01-15T01:46:48;1.90;99.90
8820;DHT22;4446;50.876;4.736;2024-01-15T01:49:15;1.90;99.90
8820;DHT22;4446;50.876;4.736;2024-01-15T01:51:43;1.80;99.90
8820;DHT22;4446;50.876;4.736;2024-01-15T01:54:11;1.80;99.90
8820;DHT22;4446;50.876;4.736;2024-01-15T01:56:39;1.80;99.90
8820;DHT22;4446;50.876;4.736;2024-01-15T01:59:08;1.80;99.90
8820;DHT22;4446;50.876;4.736;2024-01-15T02:01:38;1.80;99.90
8820;DHT22;4446;50.876;4.736;2024-01-15T02:04:06;1.80;99.90
8820;DHT22;4446;50.876;4.736;2024-01-15T02:06:33;1.70;99.90
8820;DHT22;4446;50.876;4.736;2024-01-15T02:09:00;1.70;99.90
8820;DHT22;4446;50.876;4.736;2024-01-15T02:11:27;1.80;99.90
8820;DHT22;4446;50.876;4.736;2024-01-15T02:13:54;1.80;99.90
8820;DHT22;4446;50.876;4.736;2024-01-15T02:16:22;1.90;99.90
8820;DHT22;4446;50.876;4.736;2024-01-15T02:18:50;1.90;99.90
8820;DHT22;4446;50.876;4.736;2024-01-15T02:21:17;1.80;99.90
8820;DHT22;4446;50.876;4.736;2024-01-15T02:23:45;1.80;99.90
8820;DHT22;4446;50.876;4.736;2024-01-15T02:26:12;1.80;99.90
8820;DHT22;4446;50.876;4.736;2024-01-15T02:28:40;1.90;99.90
8820;DHT22;4446;50.876;4.736;2024-01-15T02:31:10;1.80;99.90
8820;DHT22;4446;50.876;4.736;2024-01-15T02:33:37;1.80;99.90
8820;DHT22;4446;50.876;4.736;2024-01-15T02:36:04;1.80;99.90
8820;DHT22;4446;50.876;4.736;2024-01-15T02:38:31;1.90;99.90
8820;DHT22;4446;50.876;4.736;2024-01-15T02:41:00;1.80;99.90
8820;DHT22;4446;50.876;4.736;2024-01-15T02:43:27;1.80;99.90
8820;DHT22;4446;50.876;4.736;2024-01-15T02:45:54;1.90;99.90
8820;DHT22;4446;50.876;4.736;2024-01-15T02:48:21;1.80;99.90
8820;DHT22;4446;50.876;4.736;2024-01-15T02:50:48;1.80;99.90
8820;DHT22;4446;50.876;4.736;2024-01-15T02:53:15;1.80;99.90
8820;DHT22;4446;50.876;4.736;2024-01-15T02:55:42;1.80;99.90
8820;DHT22;4446;50.876;4.736;2024-01-15T02:58:11;1.80;99.90
8820;DHT22;4446;50.876;4.736;2024-01-15T03:00:38;1.80;99.90
8820;DHT22;4446;50.876;4.736;2024-01-15T03:03:05;1.80;99.90
8820;DHT22;4446;50.876;4.736;2024-01-15T03:05:32;1.80;99.90
8820;DHT22;4446;50.876;4.736;2024-01-15T03:07:59;1.80;99.90
8820;DHT22;4446;50.876;4.736;2024-01-15T03:10:26;1.90;99.90
8820;DHT22;4446;50.876;4.736;2024-01-15T03:12:53;1.90;99.90
8820;DHT22;4446;50.876;4.736;2024-01-15T03:15:21;1.90;99.90
8820;DHT22;4446;50.876;4.736;2024-01-15T03:17:48;1.80;99.90
8820;DHT22;4446;50.876;4.736;2024-01-15T03:20:15;1.90;99.90
8820;DHT22;4446;50.876;4.736;2024-01-15T03:22:42;1.90;99.90
8820;DHT22;4446;50.876;4.736;2024-01-15T03:25:09;1.80;99.90
8820;DHT22;4446;50.876;4.736;2024-01-15T03:27:36;1.80;99.90
8820;DHT22;4446;50.876;4.736;2024-01-15T03:30:04;1.80;99.90
8820;DHT22;4446;50.876;4.736;2024-01-15T03:32:32;1.80;99.90
8820;DHT22;4446;50.876;4.736;2024-01-15T03:35:00;1.90;99.90
8820;DHT22;4446;50.876;4.736;2024-01-15T03:37:27;1.90;99.90
8820;DHT22;4446;50.876;4.736;2024-01-15T03:39:54;1.90;99.90
8820;DHT22;4446;50.876;4.736;2024-01-15T03:42:21;1.80;99.90
8820;DHT22;4446;50.876;4.736;2024-01-15T03:44:47;1.90;99.90
8820;DHT22;4446;50.876;4.736;2024-01-15T03:47:15;2.00;99.90
8820;DHT22;4446;50.876;4.736;2024-01-15T03:49:43;2.00;99.90
8820;DHT22;4446;50.876;4.736;2024-01-15T03:52:10;1.90;99.90
8820;DHT22;4446;50.876;4.736;2024-01-15T03:54:37;1.80;99.90
8820;DHT22;4446;50.876;4.736;2024-01-15T03:57:04;1.70;99.90
8820;DHT22;4446;50.876;4.736;2024-01-15T03:59:31;1.60;99.90
8820;DHT22;4446;50.876;4.736;2024-01-15T04:01:58;1.60;99.90
8820;DHT22;4446;50.876;4.736;2024-01-15T04:04:25;1.70;99.90
8820;DHT22;4446;50.876;4.736;2024-01-15T04:06:54;1.70;99.90
8820;DHT22;4446;50.876;4.736;2024-01-15T04:09:21;1.70;99.90
8820;DHT22;4446;50.876;4.736;2024-01-15T04:11:48;1.70;99.90
8820;DHT22;4446;50.876;4.736;2024-01-15T04:14:15;1.70;99.90
8820;DHT22;4446;50.876;4.736;2024-01-15T04:16:42;1.70;99.90
8820;DHT22;4446;50.876;4.736;2024-01-15T04:19:09;1.70;99.90
8820;DHT22;4446;50.876;4.736;2024-01-15T04:21:36;1.80;99.90
8820;DHT22;4446;50.876;4.736;2024-01-15T04:24:06;1.80;99.90
8820;DHT22;4446;50.876;4.736;2024-01-15T04:26:33;1.70;99.90
8820;DHT22;4446;50.876;4.736;2024-01-15T04:29:00;1.70;99.90
8820;DHT22;4446;50.876;4.736;2024-01-15T04:31:27;1.70;99.90
8820;DHT22;4446;50.876;4.736;2024-01-15T04:33:54;1.70;99.90
8820;DHT22;4446;50.876;4.736;2024-01-15T04:36:21;1.70;99.90
8820;DHT22;4446;50.876;4.736;2024-01-15T04:38:47;1.60;99.90
8820;DHT22;4446;50.876;4.736;2024-01-15T04:41:16;1.60;99.90
8820;DHT22;4446;50.876;4.736;2024-01-15T04:43:43;1.50;99.90
8820;DHT22;4446;50.876;4.736;2024-01-15T04:46:10;1.40;99.90
8820;DHT22;4446;50.876;4.736;2024-01-15T04:48:37;1.40;99.90
8820;DHT22;4446;50.876;4.736;2024-01-15T04:51:05;1.30;99.90
8820;DHT22;4446;50.876;4.736;2024-01-15T04:53:32;1.30;99.90
8820;DHT22;4446;50.876;4.736;2024-01-15T04:55:59;1.30;99.90
8820;DHT22;4446;50.876;4.736;2024-01-15T04:58:28;1.20;99.90
8820;DHT22;4446;50.876;4.736;2024-01-15T05:00:55;1.10;99.90
8820;DHT22;4446;50.876;4.736;2024-01-15T05:03:22;1.00;99.90
8820;DHT22;4446;50.876;4.736;2024-01-15T05:05:49;1.00;99.90
8820;DHT22;4446;50.876;4.736;2024-01-15T05:08:16;1.00;99.90
8820;DHT22;4446;50.876;4.736;2024-01-15T05:10:43;0.90;99.90
8820;DHT22;4446;50.876;4.736;2024-01-15T05:13:10;1.00;99.90
8820;DHT22;4446;50.876;4.736;2024-01-15T05:15:39;1.00;99.90
8820;DHT22;4446;50.876;4.736;2024-01-15T05:18:06;1.10;99.90
8820;DHT22;4446;50.876;4.736;2024-01-15T05:20:33;1.20;99.90
8820;DHT22;4446;50.876;4.736;2024-01-15T05:23:00;1.30;99.90
8820;DHT22;4446;50.876;4.736;2024-01-15T05:25:27;1.30;99.90
8820;DHT22;4446;50.876;4.736;2024-01-15T05:27:54;1.20;99.90
8820;DHT22;4446;50.876;4.736;2024-01-15T05:30:21;1.30;99.90
8820;DHT22;4446;50.876;4.736;2024-01-15T05:32:49;1.30;99.90
8820;DHT22;4446;50.876;4.736;2024-01-15T05:35:17;1.30;99.90
8820;DHT22;4446;50.876;4.736;2024-01-15T05:37:45;1.30;99.90
8820;DHT22;4446;50.876;4.736;2024-01-15T05:40:12;1.30;99.90
8820;DHT22;4446;50.876;4.736;2024-01-15T05:42:39;1.30;99.90
8820;DHT22;4446;50.876;4.736;2024-01-15T05:45:07;1.30;99.90
8820;DHT22;4446;50.876;4.736;2024-01-15T05:47:34;1.30;99.90
8820;DHT22;4446;50.876;4.736;2024-01-15T05:50:03;1.30;99.90
8820;DHT22;4446;50.876;4.736;2024-01-15T05:52:30;1.20;99.90
8820;DHT22;4446;50.876;4.736;2024-01-15T05:54:57;1.10;99.90
8820;DHT22;4446;50.876;4.736;2024-01-15T05:57:24;1.10;99.90
8820;DHT22;4446;50.876;4.736;2024-01-15T05:59:51;1.10;99.90
8820;DHT22;4446;50.876;4.736;2024-01-15T06:02:19;1.10;99.90
8820;DHT22;4446;50.876;4.736;2024-01-15T06:04:46;1.10;99.90
8820;DHT22;4446;50.876;4.736;2024-01-15T06:07:14;1.00;99.90
8820;DHT22;4446;50.876;4.736;2024-01-15T06:09:41;1.00;99.90
8820;DHT22;4446;50.876;4.736;2024-01-15T06:12:08;1.00;99.90
8820;DHT22;4446;50.876;4.736;2024-01-15T06:14:35;1.00;99.90
8820;DHT22;4446;50.876;4.736;2024-01-15T06:17:02;1.00;99.90
8820;DHT22;4446;50.876;4.736;2024-01-15T06:19:29;1.10;99.90
8820;DHT22;4446;50.876;4.736;2024-01-15T06:21:56;1.10;99.90
8820;DHT22;4446;50.876;4.736;2024-01-15T06:24:24;1.10;99.90
8820;DHT22;4446;50.876;4.736;2024-01-15T06:26:51;1.10;99.90
8820;DHT22;4446;50.876;4.736;2024-01-15T06:29:19;1.00;99.90
8820;DHT22;4446;50.876;4.736;2024-01-15T06:31:46;0.90;99.90
8820;DHT22;4446;50.876;4.736;2024-01-15T06:34:13;1.00;99.90
8820;DHT22;4446;50.876;4.736;2024-01-15T06:36:40;0.90;99.90
8820;DHT22;4446;50.876;4.736;2024-01-15T06:39:07;0.90;99.90
8820;DHT22;4446;50.876;4.736;2024-01-15T06:41:35;0.80;99.90
8820;DHT22;4446;50.876;4.736;2024-01-15T06:44:07;0.90;99.90
8820;DHT22;4446;50.876;4.736;2024-01-15T06:46:34;0.90;99.90
8820;DHT22;4446;50.876;4.736;2024-01-15T06:49:02;0.80;99.90
8820;DHT22;4446;50.876;4.736;2024-01-15T06:51:29;0.70;99.90
8820;DHT22;4446;50.876;4.736;2024-01-15T06:53:56;0.70;99.90
8820;DHT22;4446;50.876;4.736;2024-01-15T06:56:23;0.80;99.90
8820;DHT22;4446;50.876;4.736;2024-01-15T06:58:51;0.70;99.90
8820;DHT22;4446;50.876;4.736;2024-01-15T07:01:18;0.80;99.90
8820;DHT22;4446;50.876;4.736;2024-01-15T07:03:45;0.80;99.90
8820;DHT22;4446;50.876;4.736;2024-01-15T07:06:13;0.80;99.90
8820;DHT22;4446;50.876;4.736;2024-01-15T07:08:40;0.70;99.90
8820;DHT22;4446;50.876;4.736;2024-01-15T07:11:07;0.80;99.90
8820;DHT22;4446;50.876;4.736;2024-01-15T07:13:36;0.70;99.90
8820;DHT22;4446;50.876;4.736;2024-01-15T07:16:05;0.70;99.90
8820;DHT22;4446;50.876;4.736;2024-01-15T07:18:33;0.70;99.90
8820;DHT22;4446;50.876;4.736;2024-01-15T07:21:00;0.80;99.90
8820;DHT22;4446;50.876;4.736;2024-01-15T07:23:28;0.80;99.90
8820;DHT22;4446;50.876;4.736;2024-01-15T07:25:55;0.80;99.90
8820;DHT22;4446;50.876;4.736;2024-01-15T07:28:22;0.70;99.90
8820;DHT22;4446;50.876;4.736;2024-01-15T07:30:49;0.60;99.90
8820;DHT22;4446;50.876;4.736;2024-01-15T07:33:19;0.60;99.90
8820;DHT22;4446;50.876;4.736;2024-01-15T07:35:46;0.60;99.90
8820;DHT22;4446;50.876;4.736;2024-01-15T07:38:13;0.70;99.90
8820;DHT22;4446;50.876;4.736;2024-01-15T07:40:40;0.70;99.90
8820;DHT22;4446;50.876;4.736;2024-01-15T07:43:07;0.80;99.90
8820;DHT22;4446;50.876;4.736;2024-01-15T07:45:34;0.70;99.90
8820;DHT22;4446;50.876;4.736;2024-01-15T07:48:01;0.70;99.90
8820;DHT22;4446;50.876;4.736;2024-01-15T07:50:31;0.70;99.90
8820;DHT22;4446;50.876;4.736;2024-01-15T07:52:58;0.80;99.90
8820;DHT22;4446;50.876;4.736;2024-01-15T07:55:25;0.90;99.90
8820;DHT22;4446;50.876;4.736;2024-01-15T07:57:52;0.90;99.90
8820;DHT22;4446;50.876;4.736;2024-01-15T08:00:24;0.90;99.90
8820;DHT22;4446;50.876;4.736;2024-01-15T08:02:51;0.90;99.90
8820;DHT22;4446;50.876;4.736;2024-01-15T08:05:18;0.90;99.90
8820;DHT22;4446;50.876;4.736;2024-01-15T08:07:47;0.90;99.90
8820;DHT22;4446;50.876;4.736;2024-01-15T08:10:14;0.90;99.90
8820;DHT22;4446;50.876;4.736;2024-01-15T08:12:41;1.00;99.90
8820;DHT22;4446;50.876;4.736;2024-01-15T08:15:08;1.00;99.90
8820;DHT22;4446;50.876;4.736;2024-01-15T08:17:35;1.10;99.90
8820;DHT22;4446;50.876;4.736;2024-01-15T08:20:03;1.20;99.90
8820;DHT22;4446;50.876;4.736;2024-01-15T08:22:30;1.20;99.90
8820;DHT22;4446;50.876;4.736;2024-01-15T08:24:59;1.20;99.90
8820;DHT22;4446;50.876;4.736;2024-01-15T08:27:26;1.30;99.90
8820;DHT22;4446;50.876;4.736;2024-01-15T08:29:53;1.30;99.90
8820;DHT22;4446;50.876;4.736;2024-01-15T08:32:20;1.40;99.90
8820;DHT22;4446;50.876;4.736;2024-01-15T08:34:47;1.40;99.90
8820;DHT22;4446;50.876;4.736;2024-01-15T08:37:17;1.50;99.90
8820;DHT22;4446;50.876;4.736;2024-01-15T08:39:44;1.50;99.90
8820;DHT22;4446;50.876;4.736;2024-01-15T08:42:13;1.50;99.90
8820;DHT22;4446;50.876;4.736;2024-01-15T08:44:40;1.60;99.90
8820;DHT22;4446;50.876;4.736;2024-01-15T08:47:09;1.60;99.90
8820;DHT22;4446;50.876;4.736;2024-01-15T08:49:36;1.70;99.90
8820;DHT22;4446;50.876;4.736;2024-01-15T08:52:03;1.70;99.90
8820;DHT22;4446;50.876;4.736;2024-01-15T08:54:30;1.80;99.90
8820;DHT22;4446;50.876;4.736;2024-01-15T08:56:57;1.80;99.90
8820;DHT22;4446;50.876;4.736;2024-01-15T08:59:26;1.80;99.90
8820;DHT22;4446;50.876;4.736;2024-01-15T09:01:54;1.90;99.90
8820;DHT22;4446;50.876;4.736;2024-01-15T09:04:22;2.00;99.90
8820;DHT22;4446;50.876;4.736;2024-01-15T09:06:50;2.10;99.90
8820;DHT22;4446;50.876;4.736;2024-01-15T09:09:17;2.10;99.90
8820;DHT22;4446;50.876;4.736;2024-01-15T09:11:45;2.20;99.90
8820;DHT22;4446;50.876;4.736;2024-01-15T09:14:12;2.20;99.90
8820;DHT22;4446;50.876;4.736;2024-01-15T09:16:40;2.30;99.90
8820;DHT22;4446;50.876;4.736;2024-01-15T09:19:07;2.30;99.90
8820;DHT22;4446;50.876;4.736;2024-01-15T09:21:34;2.40;99.90
8820;DHT22;4446;50.876;4.736;2024-01-15T09:24:01;2.40;99.90
8820;DHT22;4446;50.876;4.736;2024-01-15T09:26:28;2.40;99.90
8820;DHT22;4446;50.876;4.736;2024-01-15T09:28:55;2.40;99.90
8820;DHT22;4446;50.876;4.736;2024-01-15T09:31:22;2.40;99.90
8820;DHT22;4446;50.876;4.736;2024-01-15T09:33:51;2.30;99.90
8820;DHT22;4446;50.876;4.736;2024-01-15T09:36:21;2.30;99.90
8820;DHT22;4446;50.876;4.736;2024-01-15T09:38:49;2.30;99.90
8820;DHT22;4446;50.876;4.736;2024-01-15T09:41:16;2.20;99.90
8820;DHT22;4446;50.876;4.736;2024-01-15T09:43:44;2.10;99.90
8820;DHT22;4446;50.876;4.736;2024-01-15T09:46:11;2.10;99.90
8820;DHT22;4446;50.876;4.736;2024-01-15T09:48:39;2.10;99.90
8820;DHT22;4446;50.876;4.736;2024-01-15T09:51:08;2.00;99.90
8820;DHT22;4446;50.876;4.736;2024-01-15T09:53:36;2.00;99.90
8820;DHT22;4446;50.876;4.736;2024-01-15T09:56:04;2.10;99.90
8820;DHT22;4446;50.876;4.736;2024-01-15T09:58:32;2.20;99.90
8820;DHT22;4446;50.876;4.736;2024-01-15T10:01:00;2.30;99.90
8820;DHT22;4446;50.876;4.736;2024-01-15T10:03:28;2.30;99.90
8820;DHT22;4446;50.876;4.736;2024-01-15T10:05:58;2.40;99.90
8820;DHT22;4446;50.876;4.736;2024-01-15T10:08:27;2.40;99.90
8820;DHT22;4446;50.876;4.736;2024-01-15T10:10:54;2.50;99.90
8820;DHT22;4446;50.876;4.736;2024-01-15T10:13:22;2.50;99.90
8820;DHT22;4446;50.876;4.736;2024-01-15T10:15:49;2.50;99.90
8820;DHT22;4446;50.876;4.736;2024-01-15T10:18:17;2.60;99.90
8820;DHT22;4446;50.876;4.736;2024-01-15T10:20:45;2.60;99.90
8820;DHT22;4446;50.876;4.736;2024-01-15T10:23:12;2.60;99.90
8820;DHT22;4446;50.876;4.736;2024-01-15T10:25:41;2.70;99.90
8820;DHT22;4446;50.876;4.736;2024-01-15T10:28:08;2.70;99.90
8820;DHT22;4446;50.876;4.736;2024-01-15T10:30:35;2.80;99.90
8820;DHT22;4446;50.876;4.736;2024-01-15T10:33:03;2.90;99.90
8820;DHT22;4446;50.876;4.736;2024-01-15T10:35:32;2.90;99.90
8820;DHT22;4446;50.876;4.736;2024-01-15T10:37:59;3.00;99.90
8820;DHT22;4446;50.876;4.736;2024-01-15T10:40:26;3.00;99.90
8820;DHT22;4446;50.876;4.736;2024-01-15T10:42:55;3.10;99.90
8820;DHT22;4446;50.876;4.736;2024-01-15T10:45:22;3.10;99.90
8820;DHT22;4446;50.876;4.736;2024-01-15T10:47:49;3.10;99.90
8820;DHT22;4446;50.876;4.736;2024-01-15T10:50:16;3.20;99.90
8820;DHT22;4446;50.876;4.736;2024-01-15T10:52:43;3.30;99.90
8820;DHT22;4446;50.876;4.736;2024-01-15T10:55:11;3.30;99.90
8820;DHT22;4446;50.876;4.736;2024-01-15T10:57:38;3.30;99.90
8820;DHT22;4446;50.876;4.736;2024-01-15T11:00:08;3.30;99.90
8820;DHT22;4446;50.876;4.736;2024-01-15T11:02:40;3.30;99.90
8820;DHT22;4446;50.876;4.736;2024-01-15T11:05:08;3.40;99.90
8820;DHT22;4446;50.876;4.736;2024-01-15T11:07:36;3.40;99.90
8820;DHT22;4446;50.876;4.736;2024-01-15T11:10:07;3.50;99.90
8820;DHT22;4446;50.876;4.736;2024-01-15T11:12:35;3.60;99.90
8820;DHT22;4446;50.876;4.736;2024-01-15T11:15:04;3.70;99.90
8820;DHT22;4446;50.876;4.736;2024-01-15T11:18:00;3.80;99.90
8820;DHT22;4446;50.876;4.736;2024-01-15T11:20:28;4.00;99.90
8820;DHT22;4446;50.876;4.736;2024-01-15T11:22:56;4.10;99.90
8820;DHT22;4446;50.876;4.736;2024-01-15T11:25:34;4.10;99.90
8820;DHT22;4446;50.876;4.736;2024-01-15T11:28:04;4.20;99.90
8820;DHT22;4446;50.876;4.736;2024-01-15T11:30:31;4.20;99.90
8820;DHT22;4446;50.876;4.736;2024-01-15T11:33:03;4.20;99.90
8820;DHT22;4446;50.876;4.736;2024-01-15T11:35:48;4.20;99.90
8820;DHT22;4446;50.876;4.736;2024-01-15T11:38:26;4.20;99.90
8820;DHT22;4446;50.876;4.736;2024-01-15T11:40:54;4.20;99.90
8820;DHT22;4446;50.876;4.736;2024-01-15T11:43:21;4.30;99.90
8820;DHT22;4446;50.876;4.736;2024-01-15T11:45:52;4.30;99.90
8820;DHT22;4446;50.876;4.736;2024-01-15T11:48:20;4.20;99.90
8820;DHT22;4446;50.876;4.736;2024-01-15T11:50:51;4.20;99.90
8820;DHT22;4446;50.876;4.736;2024-01-15T11:53:33;4.20;99.90
8820;DHT22;4446;50.876;4.736;2024-01-15T11:56:02;4.10;99.90
8820;DHT22;4446;50.876;4.736;2024-01-15T11:58:30;4.20;99.90
8820;DHT22;4446;50.876;4.736;2024-01-15T12:00:57;4.10;99.90
8820;DHT22;4446;50.876;4.736;2024-01-15T12:03:26;4.10;99.90
8820;DHT22;4446;50.876;4.736;2024-01-15T12:05:53;4.00;99.90
8820;DHT22;4446;50.876;4.736;2024-01-15T12:08:24;4.00;99.90
8820;DHT22;4446;50.876;4.736;2024-01-15T12:10:52;4.00;99.90
8820;DHT22;4446;50.876;4.736;2024-01-15T12:13:20;4.10;99.90
8820;DHT22;4446;50.876;4.736;2024-01-15T12:15:47;4.20;99.90
8820;DHT22;4446;50.876;4.736;2024-01-15T12:18:16;4.40;99.90
8820;DHT22;4446;50.876;4.736;2024-01-15T12:20:45;4.50;99.90
8820;DHT22;4446;50.876;4.736;2024-01-15T12:23:13;4.60;99.90
8820;DHT22;4446;50.876;4.736;2024-01-15T12:25:40;4.70;99.90
8820;DHT22;4446;50.876;4.736;2024-01-15T12:28:08;4.80;99.90
8820;DHT22;4446;50.876;4.736;2024-01-15T12:30:36;4.90;99.90
8820;DHT22;4446;50.876;4.736;2024-01-15T12:33:04;4.90;99.90
8820;DHT22;4446;50.876;4.736;2024-01-15T12:35:33;4.90;99.90
8820;DHT22;4446;50.876;4.736;2024-01-15T12:38:02;4.70;99.90
8820;DHT22;4446;50.876;4.736;2024-01-15T12:40:32;4.80;99.90
8820;DHT22;4446;50.876;4.736;2024-01-15T12:43:00;4.70;99.90
8820;DHT22;4446;50.876;4.736;2024-01-15T12:45:27;4.70;99.90
8820;DHT22;4446;50.876;4.736;2024-01-15T12:47:54;4.70;99.90
8820;DHT22;4446;50.876;4.736;2024-01-15T12:50:24;4.70;99.90
8820;DHT22;4446;50.876;4.736;2024-01-15T12:52:52;4.70;99.90
8820;DHT22;4446;50.876;4.736;2024-01-15T12:55:20;4.70;99.90
8820;DHT22;4446;50.876;4.736;2024-01-15T12:57:47;4.80;99.90
8820;DHT22;4446;50.876;4.736;2024-01-15T13:00:15;4.60;99.90
8820;DHT22;4446;50.876;4.736;2024-01-15T13:02:43;4.50;99.90
8820;DHT22;4446;50.876;4.736;2024-01-15T13:05:10;4.40;99.90
8820;DHT22;4446;50.876;4.736;2024-01-15T13:07:37;4.10;99.90
8820;DHT22;4446;50.876;4.736;2024-01-15T13:10:05;3.70;99.90
8820;DHT22;4446;50.876;4.736;2024-01-15T13:12:34;3.40;99.90
8820;DHT22;4446;50.876;4.736;2024-01-15T13:15:02;3.20;99.90
8820;DHT22;4446;50.876;4.736;2024-01-15T13:17:30;3.10;99.90
8820;DHT22;4446;50.876;4.736;2024-01-15T13:19:57;2.90;99.90
8820;DHT22;4446;50.876;4.736;2024-01-15T13:22:24;2.70;99.90
8820;DHT22;4446;50.876;4.736;2024-01-15T13:24:55;2.50;99.90
8820;DHT22;4446;50.876;4.736;2024-01-15T13:27:22;2.30;99.90
8820;DHT22;4446;50.876;4.736;2024-01-15T13:29:51;2.10;99.90
8820;DHT22;4446;50.876;4.736;2024-01-15T13:32:23;1.90;99.90
8820;DHT22;4446;50.876;4.736;2024-01-15T13:34:51;1.70;99.90
8820;DHT22;4446;50.876;4.736;2024-01-15T13:37:18;1.70;99.90
8820;DHT22;4446;50.876;4.736;2024-01-15T13:39:45;1.60;99.90
8820;DHT22;4446;50.876;4.736;2024-01-15T13:42:12;1.60;99.90
8820;DHT22;4446;50.876;4.736;2024-01-15T13:44:40;1.50;99.90
8820;DHT22;4446;50.876;4.736;2024-01-15T13:47:09;1.60;99.90
8820;DHT22;4446;50.876;4.736;2024-01-15T13:49:36;1.60;99.90
8820;DHT22;4446;50.876;4.736;2024-01-15T13:52:04;1.70;99.90
8820;DHT22;4446;50.876;4.736;2024-01-15T13:54:31;1.60;99.90
8820;DHT22;4446;50.876;4.736;2024-01-15T13:56:58;1.50;99.90
8820;DHT22;4446;50.876;4.736;2024-01-15T13:59:25;1.50;99.90
8820;DHT22;4446;50.876;4.736;2024-01-15T14:01:52;1.50;99.90
8820;DHT22;4446;50.876;4.736;2024-01-15T14:04:20;1.40;99.90
8820;DHT22;4446;50.876;4.736;2024-01-15T14:06:47;1.40;99.90
8820;DHT22;4446;50.876;4.736;2024-01-15T14:09:14;1.40;99.90
8820;DHT22;4446;50.876;4.736;2024-01-15T14:11:41;1.30;99.90
8820;DHT22;4446;50.876;4.736;2024-01-15T14:14:08;1.30;99.90
8820;DHT22;4446;50.876;4.736;2024-01-15T14:16:35;1.40;99.90
8820;DHT22;4446;50.876;4.736;2024-01-15T14:19:02;1.40;99.90
8820;DHT22;4446;50.876;4.736;2024-01-15T14:21:30;1.50;99.90
8820;DHT22;4446;50.876;4.736;2024-01-15T14:23:57;1.50;99.90
8820;DHT22;4446;50.876;4.736;2024-01-15T14:26:24;1.60;99.90
8820;DHT22;4446;50.876;4.736;2024-01-15T14:28:51;1.70;99.90
8820;DHT22;4446;50.876;4.736;2024-01-15T14:31:20;1.60;99.90
8820;DHT22;4446;50.876;4.736;2024-01-15T14:33:47;1.60;99.90
8820;DHT22;4446;50.876;4.736;2024-01-15T14:36:14;1.60;99.90
8820;DHT22;4446;50.876;4.736;2024-01-15T14:38:42;1.50;99.90
8820;DHT22;4446;50.876;4.736;2024-01-15T14:41:09;1.40;99.90
8820;DHT22;4446;50.876;4.736;2024-01-15T14:43:36;1.30;99.90
8820;DHT22;4446;50.876;4.736;2024-01-15T14:46:03;1.20;99.90
8820;DHT22;4446;50.876;4.736;2024-01-15T14:48:31;1.10;99.90
8820;DHT22;4446;50.876;4.736;2024-01-15T14:50:58;1.00;99.90
8820;DHT22;4446;50.876;4.736;2024-01-15T14:53:25;1.10;99.90
8820;DHT22;4446;50.876;4.736;2024-01-15T14:55:53;1.10;99.90
8820;DHT22;4446;50.876;4.736;2024-01-15T14:58:21;1.10;99.90
8820;DHT22;4446;50.876;4.736;2024-01-15T15:00:47;1.10;99.90
8820;DHT22;4446;50.876;4.736;2024-01-15T15:03:14;1.10;99.90
8820;DHT22;4446;50.876;4.736;2024-01-15T15:05:41;1.10;99.90
8820;DHT22;4446;50.876;4.736;2024-01-15T15:08:08;1.10;99.90
8820;DHT22;4446;50.876;4.736;2024-01-15T15:10:37;1.10;99.90
8820;DHT22;4446;50.876;4.736;2024-01-15T15:13:07;1.30;99.90
8820;DHT22;4446;50.876;4.736;2024-01-15T15:15:35;1.30;99.90
8820;DHT22;4446;50.876;4.736;2024-01-15T15:18:02;1.30;99.90
8820;DHT22;4446;50.876;4.736;2024-01-15T15:20:29;1.30;99.90
8820;DHT22;4446;50.876;4.736;2024-01-15T15:22:57;1.40;99.90
8820;DHT22;4446;50.876;4.736;2024-01-15T15:25:24;1.40;99.90
8820;DHT22;4446;50.876;4.736;2024-01-15T15:27:52;1.40;99.90
8820;DHT22;4446;50.876;4.736;2024-01-15T15:30:20;1.40;99.90
8820;DHT22;4446;50.876;4.736;2024-01-15T15:32:48;1.40;99.90
8820;DHT22;4446;50.876;4.736;2024-01-15T15:35:14;1.40;99.90
8820;DHT22;4446;50.876;4.736;2024-01-15T15:37:42;1.40;99.90
8820;DHT22;4446;50.876;4.736;2024-01-15T15:40:09;1.40;99.90
8820;DHT22;4446;50.876;4.736;2024-01-15T15:42:38;1.40;99.90
8820;DHT22;4446;50.876;4.736;2024-01-15T15:45:06;1.40;99.90
8820;DHT22;4446;50.876;4.736;2024-01-15T15:47:36;1.50;99.90
8820;DHT22;4446;50.876;4.736;2024-01-15T15:50:04;1.60;99.90
8820;DHT22;4446;50.876;4.736;2024-01-15T15:52:31;1.60;99.90
8820;DHT22;4446;50.876;4.736;2024-01-15T15:54:58;1.50;99.90
8820;DHT22;4446;50.876;4.736;2024-01-15T15:57:25;1.40;99.90
8820;DHT22;4446;50.876;4.736;2024-01-15T15:59:53;1.40;99.90
8820;DHT22;4446;50.876;4.736;2024-01-15T16:02:20;1.30;99.90
8820;DHT22;4446;50.876;4.736;2024-01-15T16:04:49;1.30;99.90
8820;DHT22;4446;50.876;4.736;2024-01-15T16:07:16;1.20;99.90
8820;DHT22;4446;50.876;4.736;2024-01-15T16:09:43;1.20;99.90
8820;DHT22;4446;50.876;4.736;2024-01-15T16:12:10;1.10;99.90
8820;DHT22;4446;50.876;4.736;2024-01-15T16:14:37;1.10;99.90
8820;DHT22;4446;50.876;4.736;2024-01-15T16:17:04;1.10;99.90
8820;DHT22;4446;50.876;4.736;2024-01-15T16:19:31;1.00;99.90